Time;durP1;ratioP1;P1;durP2;ratioP2;P2;SDS_P1;SDS_P2;PMS_P1;PMS_P2;Temp;Humidity;BMP_temperature;BMP_pressure;BME280_temperature;BME280_humidity;BME280_pressure;Samples;Min_cycle;Max_cycle;Signal;HPM_P1;HPM_P2
2022/03/10 00:02:06;;;;;;;10.23;5.68;;;;;;;;;;5095569;28;20021;-43
2022/03/10 00:04:33;;;;;;;13.88;6.85;;;;;;;;;;5096042;28;20024;-42
2022/03/10 00:07:00;;;;;;;16.98;8.48;;;;;;;;;;5096045;28;20107;-43
2022/03/10 00:09:26;;;;;;;22.90;10.23;;;;;;;;;;5095405;28;20024;-43
2022/03/10 00:11:51;;;;;;;23.17;10.30;;;;;;;;;;5095573;28;20050;-43
2022/03/10 00:14:17;;;;;;;7.82;5.00;;;;;;;;;;5094042;28;20020;-43
2022/03/10 00:16:43;;;;;;;12.20;7.20;;;;;;;;;;5095484;28;20016;-44
2022/03/10 00:19:08;;;;;;;4.90;2.75;;;;;;;;;;5095484;28;20411;-43
2022/03/10 00:21:34;;;;;;;5.50;4.20;;;;;;;;;;5095109;28;20027;-42
2022/03/10 00:23:59;;;;;;;8.88;5.97;;;;;;;;;;5094750;28;20127;-42
2022/03/10 00:26:25;;;;;;;4.45;3.33;;;;;;;;;;5095390;28;20032;-42
2022/03/10 00:28:50;;;;;;;9.68;6.30;;;;;;;;;;5095238;28;20077;-43
2022/03/10 00:31:16;;;;;;;5.10;3.83;;;;;;;;;;5095244;28;20105;-42
2022/03/10 00:33:41;;;;;;;6.03;4.63;;;;;;;;;;5095112;28;20502;-42
2022/03/10 00:36:09;;;;;;;15.95;10.32;;;;;;;;;;5094850;28;20555;-43
2022/03/10 00:38:35;;;;;;;18.05;8.93;;;;;;;;;;5094785;28;20384;-42
2022/03/10 00:41:01;;;;;;;9.73;6.32;;;;;;;;;;5094722;28;20032;-42
2022/03/10 00:43:26;;;;;;;18.25;9.27;;;;;;;;;;5094643;28;20107;-42
2022/03/10 00:45:52;;;;;;;18.02;10.70;;;;;;;;;;5094606;28;20107;-42
2022/03/10 00:48:17;;;;;;;23.40;11.02;;;;;;;;;;5092545;28;20438;-42
2022/03/10 00:50:43;;;;;;;10.45;5.72;;;;;;;;;;5094448;28;20477;-42
2022/03/10 00:53:08;;;;;;;9.15;6.65;;;;;;;;;;5094839;28;20063;-42
2022/03/10 00:55:34;;;;;;;7.20;5.22;;;;;;;;;;5094421;28;20472;-43
2022/03/10 00:57:59;;;;;;;8.10;4.47;;;;;;;;;;5094384;28;20028;-42
2022/03/10 01:00:28;;;;;;;7.00;4.47;;;;;;;;;;5094417;28;20387;-43
2022/03/10 01:02:55;;;;;;;12.80;7.55;;;;;;;;;;5094334;28;20038;-43
2022/03/10 01:05:21;;;;;;;13.00;7.18;;;;;;;;;;5094505;28;20032;-42
2022/03/10 01:07:46;;;;;;;7.10;4.50;;;;;;;;;;5094207;28;20589;-42
2022/03/10 01:10:13;;;;;;;15.18;9.63;;;;;;;;;;5094176;28;20042;-42
2022/03/10 01:12:42;;;;;;;8.55;5.57;;;;;;;;;;5093054;28;20471;-42
2022/03/10 01:15:09;;;;;;;8.77;6.10;;;;;;;;;;5094163;28;20153;-42
2022/03/10 01:17:35;;;;;;;5.47;3.00;;;;;;;;;;5094303;28;20020;-42
2022/03/10 01:20:02;;;;;;;7.32;4.53;;;;;;;;;;5093899;28;20108;-43
2022/03/10 01:22:27;;;;;;;13.05;7.43;;;;;;;;;;5094014;28;20387;-42
2022/03/10 01:24:53;;;;;;;17.67;9.60;;;;;;;;;;5093746;28;20123;-42
2022/03/10 01:27:18;;;;;;;25.20;12.38;;;;;;;;;;5094123;28;20081;-42
2022/03/10 01:29:44;;;;;;;20.42;12.13;;;;;;;;;;5093738;28;20463;-43
2022/03/10 01:32:11;;;;;;;19.45;10.90;;;;;;;;;;5093773;28;20111;-43
2022/03/10 01:34:38;;;;;;;23.67;11.93;;;;;;;;;;5092585;28;20103;-43
2022/03/10 01:37:04;;;;;;;20.63;11.27;;;;;;;;;;5093966;28;20032;-43
2022/03/10 01:39:33;;;;;;;18.30;10.43;;;;;;;;;;5093661;28;20387;-43
2022/03/10 01:42:00;;;;;;;19.98;11.55;;;;;;;;;;5093438;28;20484;-43
2022/03/10 01:44:25;;;;;;;16.88;10.38;;;;;;;;;;5093728;28;20024;-43
2022/03/10 01:46:51;;;;;;;22.48;11.35;;;;;;;;;;5093515;28;20502;-43
2022/03/10 01:49:17;;;;;;;20.25;11.60;;;;;;;;;;5093520;28;20031;-43
2022/03/10 01:51:43;;;;;;;22.42;12.55;;;;;;;;;;5093385;28;20031;-43
2022/03/10 01:54:09;;;;;;;22.60;12.05;;;;;;;;;;5093206;28;20077;-42
2022/03/10 01:56:34;;;;;;;20.58;11.70;;;;;;;;;;5093341;28;20024;-43
2022/03/10 01:59:02;;;;;;;20.58;11.30;;;;;;;;;;5093492;28;20020;-43
2022/03/10 02:01:28;;;;;;;19.33;11.10;;;;;;;;;;5091959;28;20112;-42
2022/03/10 02:03:56;;;;;;;20.05;11.02;;;;;;;;;;5093014;28;20115;-43
2022/03/10 02:06:22;;;;;;;24.88;12.48;;;;;;;;;;5093059;28;20064;-42
2022/03/10 02:11:31;;;;;;;18.83;11.02;;;;;;;;;;5093093;28;20035;-43
2022/03/10 02:13:57;;;;;;;21.85;11.77;;;;;;;;;;5093003;28;20024;-43
2022/03/10 02:19:07;;;;;;;20.00;11.40;;;;;;;;;;5093232;28;20158;-43
2022/03/10 02:21:32;;;;;;;20.33;10.98;;;;;;;;;;5092875;28;20044;-44
2022/03/10 02:23:58;;;;;;;18.90;10.27;;;;;;;;;;5092539;28;20044;-43
2022/03/10 02:26:23;;;;;;;18.67;11.15;;;;;;;;;;5092780;28;20032;-43
2022/03/10 02:28:49;;;;;;;18.20;10.48;;;;;;;;;;5092756;28;20020;-42
2022/03/10 02:31:15;;;;;;;13.85;8.27;;;;;;;;;;5093055;28;20090;-43
2022/03/10 02:33:41;;;;;;;17.65;11.07;;;;;;;;;;5093012;28;20064;-43
2022/03/10 02:36:06;;;;;;;20.35;11.07;;;;;;;;;;5092588;28;20428;-42
2022/03/10 02:38:32;;;;;;;16.38;9.25;;;;;;;;;;5092540;28;20020;-42
2022/03/10 02:40:57;;;;;;;22.95;11.88;;;;;;;;;;5092628;28;20028;-42
2022/03/10 02:43:24;;;;;;;21.77;12.20;;;;;;;;;;5092510;28;20031;-42
2022/03/10 02:45:51;;;;;;;19.85;10.80;;;;;;;;;;5092556;28;20069;-42
2022/03/10 02:48:17;;;;;;;18.80;9.38;;;;;;;;;;5091532;28;20061;-42
2022/03/10 02:50:43;;;;;;;18.55;11.05;;;;;;;;;;5092516;28;20031;-42
2022/03/10 02:53:11;;;;;;;21.13;12.25;;;;;;;;;;5092494;28;20059;-43
2022/03/10 02:55:37;;;;;;;20.98;11.35;;;;;;;;;;5092424;28;20395;-42
2022/03/10 02:58:02;;;;;;;21.77;11.98;;;;;;;;;;5092684;28;20024;-43
2022/03/10 03:00:28;;;;;;;12.25;6.53;;;;;;;;;;5092345;28;20024;-42
2022/03/10 03:02:54;;;;;;;16.33;9.00;;;;;;;;;;5092419;28;20050;-42
2022/03/10 03:05:19;;;;;;;23.92;12.98;;;;;;;;;;5092275;28;20063;-43
2022/03/10 03:07:45;;;;;;;22.85;11.98;;;;;;;;;;5092708;28;20032;-43
2022/03/10 03:10:11;;;;;;;21.55;12.40;;;;;;;;;;5092600;28;20456;-43
2022/03/10 03:12:48;;;;;;;23.48;12.10;;;;;;;;;;5093928;28;20475;-42
2022/03/10 03:15:15;;;;;;;24.33;12.07;;;;;;;;;;5096525;28;20429;-43
2022/03/10 03:17:41;;;;;;;24.77;11.88;;;;;;;;;;5096684;28;20047;-42
2022/03/10 03:20:07;;;;;;;24.55;12.60;;;;;;;;;;5096371;28;20523;-44
2022/03/10 03:22:33;;;;;;;26.23;12.48;;;;;;;;;;5096318;28;20460;-43
2022/03/10 03:24:58;;;;;;;16.88;9.32;;;;;;;;;;5095947;28;20073;-43
2022/03/10 03:27:24;;;;;;;12.88;7.32;;;;;;;;;;5096262;28;20111;-43
2022/03/10 03:29:49;;;;;;;10.68;6.85;;;;;;;;;;5096233;28;20085;-42
2022/03/10 03:32:15;;;;;;;17.80;10.18;;;;;;;;;;5096384;28;20035;-42
2022/03/10 03:34:41;;;;;;;35.53;11.13;;;;;;;;;;5096209;28;20376;-43
2022/03/10 03:37:06;;;;;;;20.15;11.60;;;;;;;;;;5094770;28;20024;-42
2022/03/10 03:39:32;;;;;;;28.33;15.90;;;;;;;;;;5096250;28;20067;-42
2022/03/10 03:41:57;;;;;;;24.83;12.90;;;;;;;;;;5095979;28;20052;-42
2022/03/10 03:44:23;;;;;;;29.88;16.52;;;;;;;;;;5095821;28;20024;-41
2022/03/10 03:46:49;;;;;;;23.67;13.65;;;;;;;;;;5096034;28;20052;-42
2022/03/10 03:49:14;;;;;;;29.42;17.15;;;;;;;;;;5095775;28;20032;-42
2022/03/10 03:51:40;;;;;;;25.52;14.20;;;;;;;;;;5095811;28;20111;-44
2022/03/10 03:54:07;;;;;;;20.17;12.25;;;;;;;;;;5095986;28;20032;-43
2022/03/10 03:56:34;;;;;;;16.02;10.20;;;;;;;;;;5095599;28;20012;-41
2022/03/10 03:59:00;;;;;;;16.98;12.25;;;;;;;;;;5095899;28;20073;-42
2022/03/10 04:01:26;;;;;;;14.90;10.52;;;;;;;;;;5095537;28;20038;-42
2022/03/10 04:03:51;;;;;;;21.52;12.02;;;;;;;;;;5095385;28;20107;-43
2022/03/10 04:06:17;;;;;;;14.20;9.27;;;;;;;;;;5095760;28;20024;-44
2022/03/10 04:08:43;;;;;;;15.30;9.45;;;;;;;;;;5093893;28;20028;-43
2022/03/10 04:11:09;;;;;;;14.77;9.55;;;;;;;;;;5095702;28;20032;-42
2022/03/10 04:13:34;;;;;;;18.38;9.35;;;;;;;;;;5095592;28;20016;-41
2022/03/10 04:16:00;;;;;;;10.52;6.20;;;;;;;;;;5095290;28;20525;-43
2022/03/10 04:18:25;;;;;;;9.65;5.82;;;;;;;;;;5095227;28;20024;-45
2022/03/10 04:20:51;;;;;;;13.98;8.55;;;;;;;;;;5095147;28;20020;-43
2022/03/10 04:23:17;;;;;;;13.68;9.27;;;;;;;;;;5094939;28;20043;-43
2022/03/10 04:25:43;;;;;;;17.10;8.90;;;;;;;;;;5094813;28;20055;-43
2022/03/10 04:28:08;;;;;;;10.38;6.65;;;;;;;;;;5095111;28;20376;-41
2022/03/10 04:30:34;;;;;;;11.88;7.07;;;;;;;;;;5095190;28;20020;-44
2022/03/10 04:33:01;;;;;;;11.27;7.18;;;;;;;;;;5094926;28;20415;-42
2022/03/10 04:35:28;;;;;;;21.90;8.75;;;;;;;;;;5094880;28;20119;-42
2022/03/10 04:37:54;;;;;;;37.15;10.45;;;;;;;;;;5095100;28;20085;-42
2022/03/10 04:40:21;;;;;;;16.52;8.65;;;;;;;;;;5093837;28;20430;-45
2022/03/10 04:42:48;;;;;;;27.80;8.25;;;;;;;;;;5092176;28;20030;-44
2022/03/10 04:45:13;;;;;;;12.05;7.15;;;;;;;;;;5094564;28;20035;-42
2022/03/10 04:47:41;;;;;;;12.38;6.75;;;;;;;;;;5094655;28;20367;-42
2022/03/10 04:50:08;;;;;;;17.63;6.53;;;;;;;;;;5094845;28;20028;-42
2022/03/10 04:52:34;;;;;;;22.85;8.68;;;;;;;;;;5094496;28;20020;-41
2022/03/10 04:55:00;;;;;;;32.72;6.90;;;;;;;;;;5094552;28;20046;-42
2022/03/10 04:57:26;;;;;;;17.20;6.38;;;;;;;;;;5094813;28;20024;-41
2022/03/10 04:59:51;;;;;;;21.20;6.28;;;;;;;;;;5094706;28;20035;-41
2022/03/10 05:02:17;;;;;;;17.95;7.00;;;;;;;;;;5094447;28;20020;-41
2022/03/10 05:04:43;;;;;;;16.90;6.32;;;;;;;;;;5094511;28;20032;-42
2022/03/10 05:07:08;;;;;;;20.35;6.32;;;;;;;;;;5094260;28;20052;-42
2022/03/10 05:09:34;;;;;;;13.55;5.70;;;;;;;;;;5094243;28;20024;-42
2022/03/10 05:12:00;;;;;;;12.95;4.70;;;;;;;;;;5094734;28;20025;-41
2022/03/10 05:14:26;;;;;;;10.82;6.45;;;;;;;;;;5094950;28;20602;-42
2022/03/10 05:16:52;;;;;;;15.77;6.65;;;;;;;;;;5094890;28;20080;-41
2022/03/10 05:19:17;;;;;;;16.25;6.35;;;;;;;;;;5094516;28;20029;-40
2022/03/10 05:21:43;;;;;;;9.18;5.13;;;;;;;;;;5093198;28;20024;-40
2022/03/10 05:24:09;;;;;;;13.00;6.38;;;;;;;;;;5094289;28;20087;-41
2022/03/10 05:26:35;;;;;;;11.88;6.10;;;;;;;;;;5094448;28;20451;-41
2022/03/10 05:29:00;;;;;;;10.63;6.47;;;;;;;;;;5094444;28;20028;-40
2022/03/10 05:31:27;;;;;;;8.68;6.22;;;;;;;;;;5094308;28;20024;-40
2022/03/10 05:33:53;;;;;;;11.23;5.85;;;;;;;;;;5094342;28;20028;-43
2022/03/10 05:36:19;;;;;;;10.18;5.63;;;;;;;;;;5093878;28;20035;-41
2022/03/10 05:38:44;;;;;;;12.27;4.35;;;;;;;;;;5094138;28;20062;-42
2022/03/10 05:41:10;;;;;;;9.32;5.57;;;;;;;;;;5094167;28;20111;-41
2022/03/10 05:43:36;;;;;;;13.90;6.53;;;;;;;;;;5094271;28;20055;-40
2022/03/10 05:46:01;;;;;;;11.27;5.82;;;;;;;;;;5093931;28;20376;-41
2022/03/10 05:48:27;;;;;;;14.02;5.68;;;;;;;;;;5092578;28;20077;-40
2022/03/10 05:50:53;;;;;;;29.27;8.43;;;;;;;;;;5094290;28;20497;-42
2022/03/10 05:53:19;;;;;;;13.85;6.68;;;;;;;;;;5093786;28;20074;-40
2022/03/10 05:55:45;;;;;;;13.82;6.25;;;;;;;;;;5093833;28;20031;-41
2022/03/10 05:58:11;;;;;;;16.90;7.65;;;;;;;;;;5093755;28;20081;-40
2022/03/10 06:00:36;;;;;;;20.08;6.28;;;;;;;;;;5093664;28;20031;-42
2022/03/10 06:03:02;;;;;;;13.75;6.78;;;;;;;;;;5093711;28;20024;-40
2022/03/10 06:05:28;;;;;;;23.30;6.88;;;;;;;;;;5093764;28;20166;-40
2022/03/10 06:07:53;;;;;;;23.95;6.53;;;;;;;;;;5092323;28;20599;-41
2022/03/10 06:10:19;;;;;;;9.88;5.18;;;;;;;;;;5092486;28;20464;-40
2022/03/10 06:12:45;;;;;;;16.45;5.80;;;;;;;;;;5093677;28;20024;-40
2022/03/10 06:15:11;;;;;;;16.15;6.20;;;;;;;;;;5075420;28;20365;-40
2022/03/10 06:17:37;;;;;;;12.38;6.32;;;;;;;;;;5093456;28;20430;-40
2022/03/10 06:20:05;;;;;;;11.73;5.82;;;;;;;;;;5093286;28;20020;-40
2022/03/10 06:22:31;;;;;;;19.55;6.65;;;;;;;;;;5093418;28;20404;-41
2022/03/10 06:24:58;;;;;;;10.57;4.22;;;;;;;;;;5092735;28;20048;-40
2022/03/10 06:27:24;;;;;;;16.45;6.05;;;;;;;;;;5093228;28;20024;-40
2022/03/10 06:29:51;;;;;;;46.45;7.07;;;;;;;;;;5093168;28;20376;-41
2022/03/10 06:32:18;;;;;;;22.10;5.90;;;;;;;;;;5091730;28;20387;-41
2022/03/10 06:34:44;;;;;;;22.00;6.55;;;;;;;;;;5093258;28;20024;-40
2022/03/10 06:37:10;;;;;;;29.52;7.40;;;;;;;;;;5092947;28;20554;-40
2022/03/10 06:39:36;;;;;;;26.92;7.80;;;;;;;;;;5092913;28;20032;-40
2022/03/10 06:42:03;;;;;;;26.20;7.32;;;;;;;;;;5092706;28;20031;-39
2022/03/10 06:44:29;;;;;;;18.48;8.13;;;;;;;;;;5091266;28;20107;-40
2022/03/10 06:46:55;;;;;;;28.20;6.85;;;;;;;;;;5092799;28;20426;-40
2022/03/10 06:49:21;;;;;;;23.80;7.85;;;;;;;;;;5092172;28;20036;-40
2022/03/10 06:51:48;;;;;;;17.83;6.57;;;;;;;;;;5091082;28;20348;-40
2022/03/10 06:54:14;;;;;;;24.58;6.93;;;;;;;;;;5092763;28;20349;-41
2022/03/10 06:56:40;;;;;;;18.98;7.57;;;;;;;;;;5092252;28;20032;-40
2022/03/10 06:59:06;;;;;;;12.23;5.40;;;;;;;;;;5092814;28;20024;-40
2022/03/10 07:01:32;;;;;;;22.02;8.10;;;;;;;;;;5092396;28;20044;-41
2022/03/10 07:03:59;;;;;;;19.40;6.32;;;;;;;;;;5092099;28;20028;-40
2022/03/10 07:06:25;;;;;;;15.68;6.10;;;;;;;;;;5092327;28;20024;-41
2022/03/10 07:08:51;;;;;;;16.77;6.45;;;;;;;;;;5092412;28;20114;-40
2022/03/10 07:11:18;;;;;;;13.60;5.68;;;;;;;;;;5092365;28;20020;-41
2022/03/10 07:13:45;;;;;;;17.80;6.22;;;;;;;;;;5092482;28;20028;-45
2022/03/10 07:16:11;;;;;;;18.92;7.38;;;;;;;;;;5091989;28;20020;-42
2022/03/10 07:18:37;;;;;;;19.15;7.38;;;;;;;;;;5092321;28;20471;-45
2022/03/10 07:21:04;;;;;;;20.67;7.32;;;;;;;;;;5092260;28;20077;-40
2022/03/10 07:23:30;;;;;;;18.05;7.65;;;;;;;;;;5091833;28;20035;-43
2022/03/10 07:25:56;;;;;;;33.08;10.48;;;;;;;;;;5091488;28;20044;-42
2022/03/10 07:28:22;;;;;;;23.35;9.63;;;;;;;;;;5090354;28;20111;-41
2022/03/10 07:30:48;;;;;;;24.58;8.27;;;;;;;;;;5091522;28;20116;-41
2022/03/10 07:33:14;;;;;;;85.47;10.32;;;;;;;;;;5091458;28;20470;-41
2022/03/10 07:35:40;;;;;;;24.00;7.82;;;;;;;;;;5091239;28;20027;-43
2022/03/10 07:38:05;;;;;;;21.52;7.45;;;;;;;;;;5090285;28;20035;-41
2022/03/10 07:40:31;;;;;;;24.45;7.22;;;;;;;;;;5091454;28;20034;-41
2022/03/10 07:42:56;;;;;;;29.58;7.82;;;;;;;;;;5091173;28;20039;-41
2022/03/10 07:45:22;;;;;;;7.20;5.47;;;;;;;;;;5091435;28;20078;-42
2022/03/10 07:47:48;;;;;;;17.77;7.63;;;;;;;;;;5090525;28;20028;-41
2022/03/10 07:50:14;;;;;;;11.95;5.68;;;;;;;;;;5089933;28;20353;-41
2022/03/10 07:52:41;;;;;;;21.85;6.43;;;;;;;;;;5090043;28;20027;-42
2022/03/10 07:55:08;;;;;;;22.05;7.10;;;;;;;;;;5088975;28;20024;-41
2022/03/10 07:57:35;;;;;;;15.90;6.45;;;;;;;;;;5091534;28;20541;-40
2022/03/10 08:00:04;;;;;;;12.43;6.32;;;;;;;;;;5095123;28;20514;-45
2022/03/10 08:02:30;;;;;;;32.92;8.13;;;;;;;;;;5095111;28;20081;-45
2022/03/10 08:04:56;;;;;;;21.35;8.20;;;;;;;;;;5095163;28;20472;-41
2022/03/10 08:07:22;;;;;;;19.08;7.55;;;;;;;;;;5094860;28;20032;-53
2022/03/10 08:09:48;;;;;;;26.35;7.78;;;;;;;;;;5090749;28;20028;-53
2022/03/10 08:12:13;;;;;;;17.15;7.22;;;;;;;;;;5095035;28;20035;-55
2022/03/10 08:14:39;;;;;;;23.77;9.25;;;;;;;;;;5095059;28;20464;-57
2022/03/10 08:17:04;;;;;;;21.48;7.90;;;;;;;;;;5095094;28;20024;-59
2022/03/10 08:19:30;;;;;;;26.38;6.97;;;;;;;;;;5094695;28;20043;-57
2022/03/10 08:21:56;;;;;;;22.85;8.35;;;;;;;;;;5093168;28;20111;-50
2022/03/10 08:24:23;;;;;;;20.65;7.70;;;;;;;;;;5094097;28;20109;-58
2022/03/10 08:26:48;;;;;;;21.92;7.20;;;;;;;;;;5094727;28;20032;-59
2022/03/10 08:29:14;;;;;;;29.85;9.18;;;;;;;;;;5095078;28;20028;-55
2022/03/10 08:31:41;;;;;;;27.20;9.07;;;;;;;;;;5094748;28;20024;-57
2022/03/10 08:34:06;;;;;;;37.72;9.20;;;;;;;;;;5094427;28;20028;-51
2022/03/10 08:36:32;;;;;;;25.73;7.53;;;;;;;;;;5093264;28;20073;-56
2022/03/10 08:38:58;;;;;;;25.30;7.95;;;;;;;;;;5094692;28;20028;-58
2022/03/10 08:41:24;;;;;;;22.48;7.88;;;;;;;;;;5094727;28;20099;-53
2022/03/10 08:43:50;;;;;;;24.50;7.60;;;;;;;;;;5094438;28;20032;-55
2022/03/10 08:46:15;;;;;;;22.27;7.90;;;;;;;;;;5094825;28;20028;-55
2022/03/10 08:48:44;;;;;;;27.50;8.23;;;;;;;;;;5094329;28;20028;-53
2022/03/10 08:51:09;;;;;;;21.70;8.18;;;;;;;;;;5094208;28;20047;-56
2022/03/10 08:53:36;;;;;;;18.88;7.43;;;;;;;;;;5094398;28;20067;-43
2022/03/10 08:56:03;;;;;;;14.98;5.82;;;;;;;;;;5094451;28;20119;-44
2022/03/10 08:58:29;;;;;;;15.57;7.43;;;;;;;;;;5093915;28;20024;-56
2022/03/10 09:00:55;;;;;;;17.58;7.40;;;;;;;;;;5093357;28;20020;-52
2022/03/10 09:03:20;;;;;;;19.83;7.93;;;;;;;;;;5093742;28;20078;-57
2022/03/10 09:05:47;;;;;;;26.23;7.80;;;;;;;;;;5093468;28;20051;-49
2022/03/10 09:08:12;;;;;;;19.27;8.32;;;;;;;;;;5093927;28;20062;-49
2022/03/10 09:10:38;;;;;;;18.10;7.90;;;;;;;;;;5091642;28;20087;-51
2022/03/10 09:13:06;;;;;;;24.63;8.18;;;;;;;;;;5093546;28;20242;-52
2022/03/10 09:15:32;;;;;;;25.08;7.35;;;;;;;;;;5093891;28;20016;-55
2022/03/10 09:17:58;;;;;;;28.05;8.00;;;;;;;;;;5094107;28;20059;-58
2022/03/10 09:20:24;;;;;;;17.75;7.68;;;;;;;;;;5094492;28;20101;-52
2022/03/10 09:22:49;;;;;;;14.02;6.95;;;;;;;;;;5094513;28;20464;-53
2022/03/10 09:25:15;;;;;;;22.88;7.85;;;;;;;;;;5094244;28;20059;-55
2022/03/10 09:27:42;;;;;;;20.42;7.35;;;;;;;;;;5094190;28;20102;-55
2022/03/10 09:30:10;;;;;;;27.75;8.50;;;;;;;;;;5092839;28;20032;-48
2022/03/10 09:32:38;;;;;;;20.35;7.75;;;;;;;;;;5094643;28;20032;-52
2022/03/10 09:35:06;;;;;;;22.23;7.93;;;;;;;;;;5094244;28;20559;-55
2022/03/10 09:37:32;;;;;;;21.88;7.78;;;;;;;;;;5094199;28;20024;-55
2022/03/10 09:39:58;;;;;;;14.75;6.47;;;;;;;;;;5092751;28;20067;-49
2022/03/10 09:42:27;;;;;;;19.00;6.47;;;;;;;;;;5091928;28;20163;-51
2022/03/10 09:44:58;;;;;;;26.92;8.90;;;;;;;;;;5091837;28;20039;-53
2022/03/10 09:47:24;;;;;;;12.50;5.93;;;;;;;;;;5091990;28;20028;-55
2022/03/10 09:49:50;;;;;;;18.00;6.53;;;;;;;;;;5091648;28;20106;-52
2022/03/10 09:52:16;;;;;;;23.08;7.15;;;;;;;;;;5092174;28;20034;-50
2022/03/10 09:54:42;;;;;;;18.58;7.18;;;;;;;;;;5092109;28;20039;-50
2022/03/10 09:57:08;;;;;;;13.30;6.18;;;;;;;;;;5073938;28;20028;-53
2022/03/10 09:59:34;;;;;;;26.10;9.38;;;;;;;;;;5092046;28;20063;-49
2022/03/10 10:02:02;;;;;;;32.10;8.23;;;;;;;;;;5092066;28;20125;-43
2022/03/10 10:04:29;;;;;;;15.52;7.15;;;;;;;;;;5091240;28;20145;-48
2022/03/10 10:07:05;;;;;;;21.17;7.75;;;;;;;;;;5091075;28;20040;-50
2022/03/10 10:09:42;;;;;;;17.23;8.02;;;;;;;;;;5091216;28;20069;-51
2022/03/10 10:12:09;;;;;;;17.42;8.15;;;;;;;;;;5089484;28;20490;-54
2022/03/10 10:14:37;;;;;;;11.95;6.22;;;;;;;;;;5091028;28;20020;-49
2022/03/10 10:17:02;;;;;;;21.70;8.50;;;;;;;;;;5091285;28;20146;-51
2022/03/10 10:19:31;;;;;;;17.38;6.82;;;;;;;;;;5091813;28;20103;-48
2022/03/10 10:22:19;;;;;;;24.25;8.25;;;;;;;;;;5091447;28;20036;-48
2022/03/10 10:24:57;;;;;;;22.92;8.13;;;;;;;;;;5091079;28;20083;-51
2022/03/10 10:27:25;;;;;;;29.48;9.65;;;;;;;;;;5091483;28;20028;-48
2022/03/10 10:29:56;;;;;;;19.85;8.57;;;;;;;;;;5090217;28;20032;-49
2022/03/10 10:32:52;;;;;;;24.50;8.88;;;;;;;;;;5090132;28;20043;-49
2022/03/10 10:35:22;;;;;;;13.95;6.60;;;;;;;;;;5091324;28;20032;-47
2022/03/10 10:37:50;;;;;;;8.00;4.18;;;;;;;;;;5091131;28;20074;-52
2022/03/10 10:40:21;;;;;;;11.63;5.45;;;;;;;;;;5090991;28;20365;-51
2022/03/10 10:42:47;;;;;;;14.18;7.43;;;;;;;;;;5091036;28;20024;-54
2022/03/10 10:45:42;;;;;;;25.08;8.35;;;;;;;;;;5089754;28;20078;-51
2022/03/10 10:48:10;;;;;;;15.10;6.75;;;;;;;;;;5085795;28;20036;-55
2022/03/10 10:50:41;;;;;;;19.95;9.68;;;;;;;;;;5090931;28;20077;-48
2022/03/10 10:53:06;;;;;;;;;;;;;;;;;;5091484;28;20024;-51
2022/03/10 10:55:33;;;;;;;17.25;7.95;;;;;;;;;;5090985;28;19923;-51
2022/03/10 10:58:09;;;;;;;14.13;6.93;;;;;;;;;;5090815;28;20442;-49
2022/03/10 11:00:46;;;;;;;14.40;8.77;;;;;;;;;;5090695;28;20043;-53
2022/03/10 11:03:25;;;;;;;10.30;6.90;;;;;;;;;;5090655;28;20038;-47
2022/03/10 11:05:52;;;;;;;23.20;9.60;;;;;;;;;;5090747;28;20446;-54
2022/03/10 11:08:20;;;;;;;17.88;7.85;;;;;;;;;;5090676;28;20379;-55
2022/03/10 11:10:46;;;;;;;13.30;7.40;;;;;;;;;;5090345;28;20059;-44
2022/03/10 11:13:12;;;;;;;5.95;4.43;;;;;;;;;;5090549;28;20035;-43
2022/03/10 11:15:39;;;;;;;23.20;5.05;;;;;;;;;;5090572;28;20085;-44
2022/03/10 11:18:09;;;;;;;9.85;5.03;;;;;;;;;;5090633;28;20020;-55
2022/03/10 11:20:35;;;;;;;;;;;;;;;;;;5089595;28;20024;-49
2022/03/10 11:23:37;;;;;;;24.65;9.65;;;;;;;;;;5090772;28;19916;-50
2022/03/10 11:26:44;;;;;;;18.83;9.13;;;;;;;;;;5090151;28;20131;-53
2022/03/10 11:29:10;;;;;;;13.13;6.07;;;;;;;;;;5079301;28;20040;-54
2022/03/10 11:31:36;;;;;;;13.70;8.38;;;;;;;;;;5090618;28;20024;-51
2022/03/10 11:34:02;;;;;;;14.68;8.93;;;;;;;;;;5092740;28;20204;-47
2022/03/10 11:36:30;;;;;;;7.13;5.22;;;;;;;;;;5094164;28;20032;-50
2022/03/10 11:38:58;;;;;;;18.17;9.82;;;;;;;;;;5094675;28;20024;-43
2022/03/10 11:41:29;;;;;;;15.00;7.13;;;;;;;;;;5094303;28;20020;-51
2022/03/10 11:43:59;;;;;;;10.50;6.40;;;;;;;;;;5094139;28;20388;-54
2022/03/10 11:46:31;;;;;;;17.60;6.15;;;;;;;;;;5094383;28;20028;-45
2022/03/10 11:49:15;;;;;;;11.98;5.72;;;;;;;;;;5094079;28;20046;-52
2022/03/10 11:51:48;;;;;;;10.15;5.07;;;;;;;;;;5094017;28;20475;-49
2022/03/10 11:54:27;;;;;;;5.95;4.40;;;;;;;;;;5094118;28;20744;-52
2022/03/10 11:56:54;;;;;;;33.15;10.15;;;;;;;;;;5093967;28;20498;-48
2022/03/10 11:59:24;;;;;;;16.48;10.77;;;;;;;;;;5094116;28;20054;-48
2022/03/10 12:01:50;;;;;;;14.45;7.15;;;;;;;;;;5092954;28;20036;-54
2022/03/10 12:04:17;;;;;;;11.80;7.82;;;;;;;;;;5093389;28;20040;-52
2022/03/10 12:06:52;;;;;;;20.70;10.75;;;;;;;;;;5090938;28;20063;-56
2022/03/10 12:09:38;;;;;;;20.08;8.75;;;;;;;;;;5093119;28;20024;-55
2022/03/10 12:12:20;;;;;;;6.05;4.25;;;;;;;;;;5073330;28;20044;-53
2022/03/10 12:14:47;;;;;;;8.98;4.75;;;;;;;;;;5073319;28;20373;-57
2022/03/10 12:17:52;;;;;;;8.60;6.20;;;;;;;;;;5071917;28;20428;-55
2022/03/10 12:20:25;;;;;;;9.70;5.53;;;;;;;;;;5073139;28;20028;-49
2022/03/10 12:23:02;;;;;;;6.82;4.22;;;;;;;;;;5073559;28;20033;-45
2022/03/10 12:25:29;;;;;;;10.20;5.05;;;;;;;;;;5072844;28;20049;-48
2022/03/10 12:27:56;;;;;;;10.40;4.80;;;;;;;;;;5073510;28;20024;-50
2022/03/10 12:30:24;;;;;;;11.68;5.75;;;;;;;;;;5073452;28;20039;-50
2022/03/10 12:32:51;;;;;;;11.52;6.47;;;;;;;;;;5070964;28;20030;-49
2022/03/10 12:35:24;;;;;;;14.45;5.55;;;;;;;;;;5073126;28;20037;-53
2022/03/10 12:37:50;;;;;;;5.18;3.38;;;;;;;;;;5073310;28;20028;-51
2022/03/10 12:40:23;;;;;;;13.40;5.93;;;;;;;;;;5073016;28;20029;-53
2022/03/10 12:42:49;;;;;;;16.77;7.38;;;;;;;;;;5073183;28;20040;-55
2022/03/10 12:45:21;;;;;;;15.63;8.02;;;;;;;;;;5072693;28;20025;-56
2022/03/10 12:48:18;;;;;;;9.95;5.05;;;;;;;;;;5072762;28;20036;-54
2022/03/10 12:50:45;;;;;;;16.73;5.40;;;;;;;;;;5072996;28;20070;-53
2022/03/10 12:53:18;;;;;;;10.45;5.72;;;;;;;;;;5087955;28;20021;-50
2022/03/10 12:55:45;;;;;;;4.07;2.97;;;;;;;;;;5072963;28;20032;-49
2022/03/10 12:58:11;;;;;;;7.38;4.05;;;;;;;;;;5072450;28;20017;-52
2022/03/10 13:00:40;;;;;;;8.48;4.22;;;;;;;;;;5072360;28;20507;-56
2022/03/10 13:03:06;;;;;;;7.70;4.07;;;;;;;;;;5073552;28;20032;-53
2022/03/10 13:05:32;;;;;;;14.20;3.67;;;;;;;;;;5073264;28;20724;-51
2022/03/10 13:08:08;;;;;;;8.30;4.45;;;;;;;;;;5073380;28;20032;-57
2022/03/10 13:10:34;;;;;;;12.25;4.90;;;;;;;;;;5073160;28;20036;-50
2022/03/10 13:13:00;;;;;;;5.78;3.85;;;;;;;;;;5073007;28;20020;-51
2022/03/10 13:15:27;;;;;;;17.98;6.53;;;;;;;;;;5073194;28;20046;-54
2022/03/10 13:17:58;;;;;;;7.40;4.13;;;;;;;;;;5071530;28;20028;-47
2022/03/10 13:20:26;;;;;;;9.32;4.82;;;;;;;;;;5071468;28;20533;-54
2022/03/10 13:22:56;;;;;;;12.93;6.22;;;;;;;;;;5072715;28;20028;-50
2022/03/10 13:25:24;;;;;;;5.05;3.53;;;;;;;;;;5072791;28;20057;-44
2022/03/10 13:27:51;;;;;;;12.77;7.18;;;;;;;;;;5072704;28;20021;-51
2022/03/10 13:30:25;;;;;;;20.85;6.50;;;;;;;;;;5072265;28;20028;-44
2022/03/10 13:32:52;;;;;;;14.15;3.05;;;;;;;;;;5071272;28;20073;-45
2022/03/10 13:35:24;;;;;;;24.23;8.15;;;;;;;;;;5072064;28;20027;-46
2022/03/10 13:37:50;;;;;;;9.60;6.32;;;;;;;;;;5072142;28;20108;-55
2022/03/10 13:40:17;;;;;;;13.40;6.78;;;;;;;;;;5072252;28;20028;-47
2022/03/10 13:42:49;;;;;;;9.88;6.32;;;;;;;;;;5072394;28;20426;-44
2022/03/10 13:45:16;;;;;;;13.30;4.97;;;;;;;;;;5072339;28;20028;-51
2022/03/10 13:48:05;;;;;;;3.60;2.65;;;;;;;;;;5071971;28;20051;-49
2022/03/10 13:50:38;;;;;;;22.77;7.05;;;;;;;;;;5071947;28;20024;-55
2022/03/10 13:53:05;;;;;;;16.20;7.32;;;;;;;;;;5085640;28;20035;-54
2022/03/10 13:55:33;;;;;;;7.93;4.32;;;;;;;;;;5088779;28;20361;-48
2022/03/10 13:58:01;;;;;;;12.38;6.35;;;;;;;;;;5091607;28;20020;-53
2022/03/10 14:00:27;;;;;;;8.68;4.15;;;;;;;;;;5090545;28;20120;-49
2022/03/10 14:02:53;;;;;;;24.02;4.60;;;;;;;;;;5091163;28;20469;-55
2022/03/10 14:05:22;;;;;;;7.00;4.00;;;;;;;;;;5090185;28;20034;-51
2022/03/10 14:08:13;;;;;;;12.90;4.82;;;;;;;;;;5085808;28;20099;-50
2022/03/10 14:10:40;;;;;;;8.77;4.35;;;;;;;;;;5092229;28;20055;-47
2022/03/10 14:13:09;;;;;;;7.75;3.90;;;;;;;;;;5091766;28;20378;-51
2022/03/10 14:15:37;;;;;;;16.63;7.65;;;;;;;;;;5091709;28;20130;-46
2022/03/10 14:18:08;;;;;;;21.02;8.02;;;;;;;;;;5091551;28;20028;-48
2022/03/10 14:20:39;;;;;;;;;;;;;;;;;;5090572;28;20080;-45
2022/03/10 14:23:06;;;;;;;14.48;8.65;;;;;;;;;;5091518;28;19922;-46
2022/03/10 14:25:47;;;;;;;16.35;6.70;;;;;;;;;;5090972;28;20623;-47
2022/03/10 14:28:14;;;;;;;20.33;9.38;;;;;;;;;;5091232;28;20059;-50
2022/03/10 14:30:40;;;;;;;16.55;7.07;;;;;;;;;;5091459;28;20451;-43
2022/03/10 14:33:07;;;;;;;9.77;6.65;;;;;;;;;;5091349;28;20030;-44
2022/03/10 14:35:35;;;;;;;9.00;4.68;;;;;;;;;;5091520;28;20022;-46
2022/03/10 14:38:01;;;;;;;9.23;4.00;;;;;;;;;;5091316;28;20430;-45
2022/03/10 14:40:26;;;;;;;16.40;4.75;;;;;;;;;;5091414;28;20035;-48